Flight Track Log - Related Links

Times and Time Zones

All times are in EDT time to prevent confusion due to time zone crossing. See the UCA3598 flight status page for this flight to view local times or setup timezone preferences in your user account.

Time Position Orientation Groundspeed Altitude Reporting Facility
EDT Latitude Longitude Course Direction KTS MPH feet Rate Location/Type
Thu 10:22:06 PM 38.9500 -77.5000 293° West 136 157 1,800  Level Potomac TRACON
Thu 10:22:54 PM 38.9667 -77.5500 293° West 178 205 2,900 1,526 Climbing Potomac TRACON
Thu 10:24:00 PM 38.9667 -77.6167 270° West 191 220 4,700 1,800 Climbing Potomac TRACON
Thu 10:24:54 PM 38.9833 -77.6667 293° West 190 219 6,500 1,343 Climbing Potomac TRACON
Thu 10:26:14 PM 39.0575 -77.7006 340° North 207 238 7,700 1,243 Climbing Washington Center
Thu 10:27:14 PM 39.1156 -77.7131 351° North 212 244 9,400 1,587 Climbing Washington Center
Thu 10:28:15 PM 39.1717 -77.7281 348° North 207 238 10,900 1,475 Climbing Washington Center
Thu 10:29:16 PM 39.2236 -77.7403 350° North 201 231 12,400 1,377 Climbing Washington Center
Thu 10:30:17 PM 39.2817 -77.7528 351° North 201 231 13,700 814 Climbing Washington Center
Thu 10:31:14 PM 39.3397 -77.7678 349° North 201 231 14,000 153 Climbing Washington Center
Thu 10:32:15 PM 39.4103 -77.7861 349° North 227 261 14,000  Level Washington Center
Thu 10:33:15 PM 39.4850 -77.8044 349° North 254 292 14,000  Level Washington Center
Thu 10:34:14 PM 39.5597 -77.8231 349° North 265 305 14,000  Level Washington Center
Thu 10:35:15 PM 39.6344 -77.8389 351° North 265 305 14,000 627 Level Washington Center
Thu 10:36:47 PM 39.7308 -77.8358 North 268 308 15,600 1,145 Climbing New York Center
Thu 10:37:47 PM 39.7772 -77.7919 36° Northeast 224 258 16,900 750 Climbing New York Center
Thu 10:38:47 PM 39.8258 -77.7481 35° Northeast 209 241 17,100 100 Climbing New York Center
Thu 10:39:47 PM 39.8883 -77.7136 23° Northeast 223 257 17,100 -50 Level New York Center
Thu 10:40:47 PM 39.9533 -77.6714 26° Northeast 233 268 17,000  Descending New York Center
Thu 10:41:47 PM 40.0183 -77.6317 25° Northeast 244 281 17,100  Climbing New York Center
Thu 10:42:47 PM 40.0856 -77.5867 27° Northeast 255 293 17,000 -50 Descending New York Center
Thu 10:43:47 PM 40.1569 -77.5422 25° Northeast 260 299 17,000 50 Level New York Center
Thu 10:44:47 PM 40.2175 -77.5044 25° Northeast 260 299 17,100 100 Climbing New York Center
Thu 10:46:00 PM 40.2884 -77.4559 28° Northeast  Level FlightAware Approximate
Thu 10:53:00 PM 40.6988 -77.1817 26° Northeast  Level FlightAware Approximate
Thu 10:54:00 PM 40.7577 -77.1430 26° Northeast  Level FlightAware Approximate
Thu 10:55:00 PM 40.8166 -77.1043 26° Northeast  Level FlightAware Approximate
Thu 10:56:00 PM 40.8754 -77.0655 26° Northeast  Level FlightAware Approximate
Thu 10:57:00 PM 40.9342 -77.0266 27° Northeast  Level FlightAware Approximate
Thu 10:58:00 PM 40.9931 -76.9877 27° Northeast  Level FlightAware Approximate
Thu 10:59:00 PM 41.0519 -76.9487 27° Northeast  Level FlightAware Approximate
Thu 11:00:00 PM 41.1107 -76.9097 27° Northeast  Level FlightAware Approximate
Thu 11:01:00 PM 41.1695 -76.8705 27° Northeast  Level FlightAware Approximate
Thu 11:02:00 PM 41.2282 -76.8313 27° Northeast  Level FlightAware Approximate
Thu 11:03:00 PM 41.2870 -76.7920 27° Northeast  Level FlightAware Approximate
Thu 11:04:00 PM 41.3471 -76.7569 28° Northeast  Level FlightAware Approximate
Thu 11:05:00 PM 41.4050 -76.7155 28° Northeast  Level FlightAware Approximate
Thu 11:06:00 PM 41.4618 -76.6715 37° Northeast  Level FlightAware Approximate
Thu 11:07:00 PM 41.5169 -76.6249 21° North  Level FlightAware Approximate
Thu 11:08:00 PM 41.5742 -76.5826 32° Northeast  Level FlightAware Approximate
Thu 11:09:00 PM 41.6300 -76.5361 32° Northeast  Level FlightAware Approximate
Thu 11:10:00 PM 41.6859 -76.4896 32° Northeast  Level FlightAware Approximate
Thu 11:11:00 PM 41.7421 -76.4441 26° Northeast  Level FlightAware Approximate
Thu 11:12:00 PM 41.8000 -76.4024 33° Northeast  Level FlightAware Approximate
Thu 11:13:00 PM 41.8554 -76.3549 33° Northeast  Level FlightAware Approximate
Thu 11:14:00 PM 41.9112 -76.3083 29° Northeast  Level FlightAware Approximate
Thu 11:15:00 PM 41.9686 -76.2651 30° Northeast  Level FlightAware Approximate
Thu 11:16:00 PM 42.0256 -76.2209 30° Northeast  Level FlightAware Approximate
Thu 11:17:00 PM 42.0825 -76.1766 30° Northeast  Level FlightAware Approximate
Thu 11:18:00 PM 42.1413 -76.1377 20° North  Level FlightAware Approximate
Thu 11:19:00 PM 42.1718 -76.0652 69° East  Level FlightAware Approximate
Thu 11:20:00 PM 42.1955 -75.9824 69° East  Level FlightAware Approximate
Thu 11:21:00 PM 42.2000 -75.9667 North  Level FlightAware Approximate
Thu 11:22:00 PM 42.2084 -75.9796 North  Level Estimated
Thu 11:23:00 PM 42.2084 -75.9796 North  Level Estimated
Thu 11:24:00 PM 42.2084 -75.9796 North  Level Estimated
Thu 11:25:00 PM 42.2084 -75.9796 North  Level Estimated
Thu 11:26:00 PM 42.2084 -75.9796 North  Level Estimated
Thu 11:27:00 PM 42.2084 -75.9796 North  Level Estimated
Thu 11:28:00 PM 42.2084 -75.9796 North  Level Estimated
Thu 11:29:00 PM 42.2084 -75.9796 North  Level Estimated
Thu 11:30:00 PM 42.2084 -75.9796 North  Level Estimated

Login

Don't have an account? Register now (free) for customized features, flight alerts, and more!